Time;durP1;ratioP1;P1;durP2;ratioP2;P2;SDS_P1;SDS_P2;PMS_P1;PMS_P2;Temp;Humidity;BMP_temperature;BMP_pressure;BME280_temperature;BME280_humidity;BME280_pressure;Samples;Min_cycle;Max_cycle;Signal;HPM_P1;HPM_P2
2021/03/25 00:01:16;;;;;;;29.25;20.92;;;;;;;1.08;100.00;101418.46;1775426;80;21054;-80
2021/03/25 00:03:48;;;;;;;29.77;20.52;;;;;;;1.12;100.00;101421.36;1774974;80;21070;-82
2021/03/25 00:09:36;;;;;;;;;;;;;;;1.17;100.00;101409.80;1777466;80;20155;-77
2021/03/25 00:12:07;;;;;;;;;;;;;;;1.17;100.00;101410.65;1778285;80;20270;-78
2021/03/25 00:14:36;;;;;;;;;;;;;;;1.16;100.00;101410.23;1777609;80;20159;-81
2021/03/25 00:17:06;;;;;;;;;;;;;;;1.13;100.00;101403.03;1778191;80;20175;-80
2021/03/25 00:19:34;;;;;;;;;;;;;;;1.14;100.00;101408.57;1778732;80;21158;-78
2021/03/25 00:22:04;;;;;;;;;;;;;;;1.16;100.00;101410.66;1778498;80;20195;-81
2021/03/25 00:24:35;;;;;;;;;;;;;;;1.18;100.00;101405.92;1778991;80;20550;-79
2021/03/25 00:27:05;;;;;;;;;;;;;;;1.19;100.00;101399.10;1779057;80;21018;-80
2021/03/25 00:29:33;;;;;;;;;;;;;;;1.23;100.00;101399.47;1778256;80;20219;-79
2021/03/25 00:32:01;;;;;;;;;;;;;;;1.26;100.00;101398.14;1778006;80;21210;-79
2021/03/25 00:34:32;;;;;;;;;;;;;;;1.32;100.00;101396.77;1778088;80;20119;-83
2021/03/25 00:36:59;;;;;;;;;;;;;;;1.36;100.00;101397.13;1777542;80;20128;-80
2021/03/25 00:39:31;;;;;;;;;;;;;;;1.38;100.00;101400.06;1777570;80;20167;-81
2021/03/25 00:41:59;;;;;;;;;;;;;;;1.38;100.00;101400.49;1778606;80;20498;-82
2021/03/25 00:44:28;;;;;;;;;;;;;;;1.40;100.00;101398.34;1777189;80;21202;-80
2021/03/25 00:46:56;;;;;;;;;;;;;;;1.41;100.00;101398.73;1777569;80;20426;-82
2021/03/25 00:49:30;;;;;;;;;;;;;;;1.42;100.00;101394.47;1777913;80;20135;-81
2021/03/25 00:52:00;;;;;;;;;;;;;;;1.41;100.00;101394.90;1777845;80;20203;-82
2021/03/25 00:54:30;;;;;;;;;;;;;;;1.39;100.00;101397.93;1777918;80;20148;-80
2021/03/25 00:56:59;;;;;;;;;;;;;;;1.41;100.00;101397.88;1778573;80;21213;-82
2021/03/25 00:59:27;;;;;;;;;;;;;;;1.41;100.00;101400.44;1777976;80;20148;-83
2021/03/25 01:01:56;;;;;;;;;;;;;;;1.43;100.00;101396.17;1778199;80;20195;-83
2021/03/25 01:04:25;;;;;;;;;;;;;;;1.45;100.00;101396.55;1778360;80;20557;-78
2021/03/25 01:06:52;;;;;;;;;;;;;;;1.45;100.00;101394.41;1778549;80;20207;-81
2021/03/25 01:09:22;;;;;;;;;;;;;;;1.45;100.00;101393.98;1779008;80;21249;-80
2021/03/25 01:11:50;;;;;;;;;;;;;;;1.44;100.00;101392.72;1779233;80;20477;-77
2021/03/25 01:14:23;;;;;;;;;;;;;;;1.43;100.00;101398.30;1778955;80;20509;-76
2021/03/25 01:16:51;;;;;;;;;;;;;;;1.44;100.00;101393.56;1780401;80;20211;-78
2021/03/25 01:19:27;;;;;;;;;;;;;;;1.44;100.00;101387.60;1779760;80;20203;-78
2021/03/25 01:21:56;;;;;;;;;;;;;;;1.43;100.00;101387.22;1780012;80;21258;-76
2021/03/25 01:24:25;;;;;;;;;;;;;;;1.45;100.00;101393.98;1779204;80;20112;-76
2021/03/25 01:26:52;;;;;;;;;;;;;;;1.45;100.00;101391.42;1779356;80;20088;-78
2021/03/25 01:29:26;;;;;;;;;;;;;;;1.45;100.00;101392.70;1778938;80;20723;-79
2021/03/25 01:31:55;;;;;;;;;;;;;;;1.43;100.00;101390.63;1779341;80;20167;-79
2021/03/25 01:34:23;;;;;;;;;;;;;;;1.41;100.00;101392.77;1779974;80;21215;-78
2021/03/25 01:36:52;;;;;;;;;;;;;;;1.38;100.00;101388.98;1779934;80;20254;-77
2021/03/25 01:39:23;;;;;;;;;;;;;;;1.36;100.00;101390.73;1779508;80;20156;-80
2021/03/25 01:41:51;;;;;;;;;;;;;;;1.33;100.00;101393.34;1779650;80;20489;-80
2021/03/25 01:44:32;;;;;;;;;;;;;;;1.34;100.00;101400.16;1778838;80;20262;-80
2021/03/25 01:47:02;;;;;;;;;;;;;;;1.38;100.00;101400.49;1779500;80;21367;-78
2021/03/25 01:49:30;;;;;;;;;;;;;;;1.42;100.00;101399.16;1778707;80;20173;-79
2021/03/25 01:52:22;;;;;;;;;;;;;;;1.49;100.00;101406.29;1778473;80;20242;-81
2021/03/25 01:55:00;;;;;;;;;;;;;;;1.53;100.00;101410.03;1777383;80;20211;-79
2021/03/25 01:57:48;;;;;;;;;;;;;;;1.55;100.00;101408.31;1777296;80;20176;-78
2021/03/25 02:00:30;;;;;;;;;;;;;;;1.53;100.00;101412.59;1777366;80;21212;-78
2021/03/25 02:03:24;;;;;;;;;;;;;;;1.49;100.00;101414.81;1777285;80;20187;-79
2021/03/25 02:06:16;;;;;;;;;;;;;;;1.46;100.00;101411.45;1777269;80;20179;-81
2021/03/25 02:08:51;;;;;;;;;;;;;;;1.43;100.00;101410.23;1754750;80;20220;-79
2021/03/25 02:11:31;;;;;;;;;;;;;;;1.39;100.00;101411.14;1777458;80;20179;-80
2021/03/25 02:14:11;;;;;;;;;;;;;;;1.33;100.00;101417.20;1777764;80;20136;-80
2021/03/25 02:16:51;;;;;;;;;;;;;;;1.28;100.00;101415.57;1749944;80;20294;-80
2021/03/25 02:19:54;;;;;;;;;;;;;;;1.25;100.00;101419.45;1776348;80;20136;-80
2021/03/25 02:22:30;;;;;;;;;;;;;;;1.23;100.00;101418.22;1781028;80;20214;-80
2021/03/25 02:25:16;;;;;;;;;;;;;;;1.22;100.00;101420.36;1780974;80;20151;-78
2021/03/25 02:28:33;;;;;;;;;;;;;;;1.21;100.00;101421.67;1776783;80;22330;-79
2021/03/25 02:31:10;;;;;;;;;;;;;;;1.21;100.00;101417.41;1776810;80;20227;-77
2021/03/25 02:33:42;;;;;;;;;;;;;;;1.19;100.00;101420.41;1777273;80;20250;-81
2021/03/25 02:36:12;;;;;;;;;;;;;;;1.20;100.00;101425.09;1777466;80;20235;-78
2021/03/25 02:38:59;;;;;;;;;;;;;;;1.20;100.00;101427.64;1777254;80;20120;-83
2021/03/25 02:41:38;;;;;;;;;;;;;;;1.19;100.00;101423.39;1780954;80;21383;-78
2021/03/25 02:44:11;;;;;;;;;;;;;;;1.19;100.00;101417.00;1777368;80;20175;-78
2021/03/25 02:46:48;;;;;;;;;;;;;;;1.17;100.00;101413.20;1783990;80;20291;-78
2021/03/25 02:49:18;;;;;;;;;;;;;;;1.17;100.00;101408.09;1785810;80;20155;-79
2021/03/25 02:52:01;;;;;;;;;;;;;;;1.18;100.00;101407.66;1785562;80;20290;-80
2021/03/25 02:54:30;;;;;;;;;;;;;;;1.17;100.00;101408.09;1785551;80;21160;-80
2021/03/25 02:57:01;;;;;;;;;;;;;;;1.17;100.00;101411.08;1785794;80;20646;-80
2021/03/25 02:59:40;;;;;;;;;;;;;;;1.16;100.00;101409.38;1774251;80;20139;-79
2021/03/25 03:02:32;;;;;;;;;;;;;;;1.17;100.00;101405.97;1782757;80;20163;-79
2021/03/25 03:05:08;;;;;;;;;;;;;;;1.17;100.00;101406.81;1785883;80;20546;-76
2021/03/25 03:07:44;;;;;;;;;;;;;;;1.18;100.00;101407.66;1785579;80;21370;-81
2021/03/25 03:10:17;;;;;;;;;;;;;;;1.15;100.00;101402.14;1781431;80;20661;-77
2021/03/25 03:12:47;;;;;;;;;;;;;;;1.17;100.00;101405.53;1785651;80;20167;-77
2021/03/25 03:15:27;;;;;;;;;;;;;;;1.17;100.00;101407.24;1786104;80;20214;-78
2021/03/25 03:18:04;;;;;;;;;;;;;;;1.18;100.00;101402.09;1757999;80;20226;-78
2021/03/25 03:20:49;;;;;;;;;;;;;;;1.18;100.00;101404.64;1777208;80;21375;-82
2021/03/25 03:23:35;;;;;;;;;;;;;;;1.17;100.00;101402.98;1785697;80;20241;-78
2021/03/25 03:26:09;;;;;;;;;;;;;;;1.16;100.00;101402.98;1785775;80;20493;-79
2021/03/25 03:28:46;;;;;;;;;;;;;;;1.14;100.00;101408.57;1785726;80;20316;-76
2021/03/25 03:31:26;;;;;;;;;;;;;;;1.13;100.00;101405.16;1785813;80;20226;-80
2021/03/25 03:34:04;;;;;;;;;;;;;;;1.14;100.00;101397.06;1785546;80;21200;-82
2021/03/25 03:36:32;;;;;;;;;;;;;;;1.15;100.00;101395.75;1785508;80;20111;-81
2021/03/25 03:39:09;;;;;;;;;;;;;;;1.16;100.00;101400.00;1785636;80;20226;-80
2021/03/25 03:41:57;;;;;;;;;;;;;;;1.16;100.00;101406.82;1785904;80;20147;-80
2021/03/25 03:44:30;;;;;;;;;;;;;;;1.15;100.00;101407.71;1785727;80;20301;-78
2021/03/25 03:46:58;;;;;;;;;;;;;;;1.13;100.00;101399.20;1783130;80;21472;-76
2021/03/25 03:49:51;;;;;;;;;;;;;;;1.13;100.00;101404.31;1783011;80;20706;-79
2021/03/25 03:52:26;;;;;;;;;;;;;;;1.15;99.96;101403.88;1782523;80;20143;-77
2021/03/25 03:54:58;;;;;;;;;;;;;;;1.16;99.92;101405.12;1782835;80;20306;-79
2021/03/25 03:57:48;;;;;;;;;;;;;;;1.18;99.89;101408.48;1782870;80;20147;-78
2021/03/25 04:00:30;;;;;;;;;;;;;;;1.19;99.76;101399.95;1782922;80;21200;-76
2021/03/25 04:03:32;;;;;;;;;;;;;;;1.21;99.65;101404.62;1783004;80;20629;-80
2021/03/25 04:06:17;;;;;;;;;;;;;;;1.23;99.55;101406.72;1783131;80;20492;-77
2021/03/25 04:09:11;;;;;;;;;;;;;;;1.26;99.30;101400.70;1783063;80;20262;-79
2021/03/25 04:11:51;;;;;;;;;;;;;;;1.26;99.16;101401.55;1780834;80;20159;-77
2021/03/25 04:14:28;;;;;;;;;;;;;;;1.29;98.98;101398.94;1780372;80;22050;-76
2021/03/25 04:17:00;;;;;;;;;;;;;;;1.31;98.93;101405.33;1783091;80;20227;-78
2021/03/25 04:19:38;;;;;;;;;;;;;;;1.33;98.85;101397.19;1783019;80;20222;-81
2021/03/25 04:22:29;;;;;;;;;;;;;;;1.37;98.71;101407.78;1782987;80;20131;-79
2021/03/25 04:25:15;;;;;;;;;;;;;;;1.40;98.48;101414.12;1783024;80;20512;-77
2021/03/25 04:27:47;;;;;;;;;;;;;;;1.42;98.17;101412.38;1782561;80;21253;-80
2021/03/25 04:30:25;;;;;;;;;;;;;;;1.46;97.93;101405.06;1783108;80;20158;-75
2021/03/25 04:32:53;;;;;;;;;;;;;;;1.50;97.72;101413.10;1782845;80;20290;-77
2021/03/25 04:35:21;;;;;;;;;;;;;;;1.55;97.65;101420.25;1782840;80;20551;-77
2021/03/25 04:37:50;;;;;;;;;;;;;;;1.56;97.66;101416.37;1783007;80;20246;-80
2021/03/25 04:40:23;;;;;;;;;;;;;;;1.59;97.68;101425.30;1783065;80;22149;-79
2021/03/25 04:42:52;;;;;;;;;;;;;;;1.60;97.22;101415.45;1782944;80;20136;-79
2021/03/25 04:45:27;;;;;;;;;;;;;;;1.63;96.38;101415.02;1782843;80;20136;-78
2021/03/25 04:47:58;;;;;;;;;;;;;;;1.68;95.95;101418.33;1783236;80;20127;-77
2021/03/25 04:50:30;;;;;;;;;;;;;;;1.71;95.34;101417.84;1782887;80;20246;-79
2021/03/25 04:53:01;;;;;;;;;;;;;;;1.75;95.28;101419.91;1782869;80;21274;-78
2021/03/25 04:55:34;;;;;;;;;;;;;;;1.78;95.34;101417.30;1782797;80;20132;-79
2021/03/25 04:58:08;;;;;;;;;;;;;;;1.81;95.24;101421.08;1782650;80;20215;-79
2021/03/25 05:00:41;;;;;;;;;;;;;;;1.84;94.99;101425.70;1782817;80;20545;-81
2021/03/25 05:03:11;;;;;;;;;;;;;;;1.88;94.77;101417.08;1782765;80;20292;-80
2021/03/25 05:05:40;;;;;;;;;;;;;;;1.93;94.50;101424.69;1782983;80;22154;-76
2021/03/25 05:08:18;;;;;;;;;;;;;;;1.98;94.32;101426.28;1783105;80;20226;-78
2021/03/25 05:10:49;;;;;;;;;;;;;;;2.02;93.70;101436.03;1783094;80;20226;-76
2021/03/25 05:13:25;;;;;;;;;;;;;;;2.01;92.92;101433.08;1762200;80;20297;-78
2021/03/25 05:15:56;;;;;;;;;;;;;;;2.02;92.51;101434.31;1783069;80;20210;-78
2021/03/25 05:18:27;;;;;;;;;;;;;;;2.05;92.71;101434.69;1782252;80;21231;-80
2021/03/25 05:20:58;;;;;;;;;;;;;;;2.09;92.35;101443.58;1783025;80;20492;-81
2021/03/25 05:23:47;;;;;;;;;;;;;;;2.12;91.65;101437.55;1783129;80;20262;-78
2021/03/25 05:26:21;;;;;;;;;;;;;;;2.15;91.00;101442.61;1783054;80;20222;-77
2021/03/25 05:28:53;;;;;;;;;;;;;;;2.21;90.39;101446.76;1782913;80;20223;-78
2021/03/25 05:31:20;;;;;;;;;;;;;;;2.24;90.03;101441.58;1782953;80;21206;-78
2021/03/25 05:33:51;;;;;;;;;;;;;;;2.27;89.87;101449.20;1783015;80;20111;-77
2021/03/25 05:36:20;;;;;;;;;;;;;;;2.30;89.58;101449.98;1783015;80;20148;-77
2021/03/25 05:38:48;;;;;;;;;;;;;;;2.34;89.34;101447.78;1782807;80;20155;-79
2021/03/25 05:41:35;;;;;;;;;;;;;;;2.37;88.59;101450.71;1783120;80;20286;-81
2021/03/25 05:44:31;;;;;;;;;;;;;;;2.40;88.48;101445.09;1723787;80;21204;-80
2021/03/25 05:47:22;;;;;;;;;;;;;;;2.45;88.25;101452.27;1782905;80;20246;-79
2021/03/25 05:50:19;;;;;;;;;;;;;;;2.51;87.89;101454.70;1783116;80;20144;-79
2021/03/25 05:53:06;;;;;;;;;;;;;;;2.56;88.11;101456.72;1783020;80;20560;-80
2021/03/25 05:55:43;;;;;;;;;;;;;;;2.63;87.58;101467.26;1783144;80;20489;-81
2021/03/25 05:58:35;;;;;;;;;;;;;;;2.65;86.50;101462.94;1782932;80;21880;-76
2021/03/25 06:01:16;;;;;;;;;;;;;;;2.72;86.16;101461.52;1783097;80;20925;-81
2021/03/25 06:04:07;;;;;;;;;;;;;;;2.78;85.79;101457.55;1783081;80;20162;-82
2021/03/25 06:06:42;;;;;;;;;;;;;;;2.80;85.73;101466.06;1783004;80;20132;-78
2021/03/25 06:09:26;;;;;;;;;;;;;;;2.86;85.32;101471.05;1783126;80;20214;-78
2021/03/25 06:12:31;;;;;;;;;;;;;;;2.88;85.01;101473.14;1783015;80;21200;-82
2021/03/25 06:15:36;;;;;;;;;;;;;;;2.87;84.10;101473.56;1782897;80;20111;-80
2021/03/25 06:18:30;;;;;;;;;;;;;;;2.83;84.12;101477.53;1782839;80;20135;-79
2021/03/25 06:21:03;;;;;;;;;;;;;;;2.86;84.29;101481.31;1783193;80;20163;-80
2021/03/25 06:23:36;;;;;;;;;;;;;;;2.91;84.25;101476.91;1782924;80;20230;-80
2021/03/25 06:26:28;;;;;;;;;;;;;;;2.95;83.47;101483.23;1782951;80;20214;-80
2021/03/25 06:29:02;;;;;;;;;;;;;;;2.99;83.27;101486.58;1782897;80;20286;-78
2021/03/25 06:31:49;;;;;;;;;;;;;;;3.02;81.83;101487.36;1783037;80;20120;-76
2021/03/25 06:34:42;;;;;;;;;;;;;;;3.06;80.93;101490.23;1783120;80;20221;-81
2021/03/25 06:37:18;;;;;;;;;;;;;;;3.08;81.57;101493.63;1783091;80;20239;-83
2021/03/25 06:40:05;;;;;;;;;;;;;;;3.14;80.74;101492.22;1782856;80;20234;-80
2021/03/25 06:42:40;;;;;;;;;;;;;;;3.13;80.49;101484.11;1754910;80;20186;-81
2021/03/25 06:45:22;;;;;;;;;;;;;;;3.16;80.93;101480.63;1782724;80;20501;-79
2021/03/25 06:48:08;;;;;;;;;;;;;;;3.23;80.98;101484.74;1763153;80;20275;-76
2021/03/25 06:50:41;;;;;;;;;;;;;;;3.32;80.87;101495.25;1772286;80;20263;-77
2021/03/25 06:53:21;;;;;;;;;;;;;;;3.42;80.84;101492.85;1753175;80;21203;-79
2021/03/25 06:55:52;;;;;;;;;;;;;;;3.52;79.56;101490.48;1775941;80;20298;-77
2021/03/25 06:58:22;;;;;;;;;;;;;;;3.61;78.63;101489.82;1775686;80;20199;-82
2021/03/25 07:00:59;;;;;;;;;;;;;;;3.62;77.99;101485.53;1775819;80;20277;-81
2021/03/25 07:03:29;;;;;;;;;;;;;;;3.59;77.50;101484.33;1738424;81;20281;-78
2021/03/25 07:05:57;;;;;;;;;;;;;;;3.59;77.66;101484.33;1738684;81;22131;-80
2021/03/25 07:08:26;;;;;;;;;;;;;;;3.60;75.93;101477.89;1738530;81;20300;-82
2021/03/25 07:10:58;;;;;;;;;;;;;;;3.58;74.93;101477.06;1738575;82;20225;-83
2021/03/25 07:13:39;;;;;;;;;;;;;;;3.62;75.36;101476.12;1738628;82;20310;-81
2021/03/25 07:16:09;;;;;;;;;;;;;;;3.66;74.36;101476.45;1738547;82;20281;-78
2021/03/25 07:18:57;;;;;;;;;;;;;;;3.71;73.04;101470.75;1738768;82;20296;-82
2021/03/25 07:21:35;;;;;;;;;;;;;;;3.75;72.31;101463.82;1751338;80;20305;-82
2021/03/25 07:24:08;;;;;;;;;;;;;;;3.81;73.31;101467.95;1744429;82;20273;-79
2021/03/25 07:26:44;;;;;;;;;;;;;;;3.96;72.52;101463.26;1889682;73;20283;-79
2021/03/25 07:29:19;;;;;;;;;;;;;;;3.97;71.69;101462.83;1856147;77;20213;-82
2021/03/25 07:32:02;;;;;;;;;;;;;;;4.01;71.18;101465.72;1868797;74;21354;-81
2021/03/25 07:34:40;;;;;;;;;;;;;;;4.10;72.48;101466.76;1888677;74;20195;-77
2021/03/25 07:37:09;;;;;;;;;;;;;;;4.21;71.45;101465.58;1890239;74;20246;-79
2021/03/25 07:39:39;;;;;;;;;;;;;;;4.36;71.14;101469.47;1890803;74;20191;-80
2021/03/25 07:42:08;;;;;;;;;;;;;;;4.44;69.92;101462.81;1888327;76;20176;-83
2021/03/25 07:44:42;;;;;;;;;;;;;;;4.54;68.77;101468.95;1890871;76;22106;-80
2021/03/25 07:47:30;;;;;;;;;;;;;;;4.61;68.17;101465.33;1886009;76;20207;-77
2021/03/25 07:50:24;;;;;;;;;;;;;;;4.71;67.83;101469.76;1890728;74;20568;-83
2021/03/25 07:52:54;;;;;;;;;;;;;;;4.77;66.73;101473.00;1889550;76;20218;-78
2021/03/25 07:55:33;;;;;;;;;;;;;;;4.76;65.11;101461.45;1890663;76;20529;-81
2021/03/25 07:58:02;;;;;;;;;;;;;;;4.81;65.63;101454.47;1882821;76;21181;-80
2021/03/25 08:00:34;;;;;;;;;;;;;;;4.98;65.96;101459.93;1890541;76;20282;-76
2021/03/25 08:03:11;;;;;;;;;;;;;;;4.99;61.64;101459.05;1890244;75;20253;-80
2021/03/25 08:05:44;;;;;;;;;;;;;;;5.03;63.16;101458.08;1856525;77;20366;-82
2021/03/25 08:08:38;;;;;;;;;;;;;;;5.06;62.56;101455.41;1863272;75;20294;-81
2021/03/25 08:11:24;;;;;;;;;;;;;;;5.12;63.38;101460.36;1903460;74;21435;-83
2021/03/25 08:13:59;;;;;;;;;;;;;;;5.15;60.11;101458.98;1912533;74;20309;-81
2021/03/25 08:16:30;;;;;;;;;;;;;;;5.20;61.32;101460.14;1918227;74;20167;-81
2021/03/25 08:19:16;;;;;;;;;;;;;;;5.20;61.14;101458.38;1894063;74;20353;-82
2021/03/25 08:22:08;;;;;;;;;;;;;;;5.26;60.99;101463.33;1835567;76;20662;-79
2021/03/25 08:24:58;;;;;;;;;;;;;;;5.38;60.75;101454.84;1862305;75;20310;-79
2021/03/25 08:27:45;;;;;;;;;;;;;;;5.52;59.23;101460.41;1901994;74;20402;-81
2021/03/25 08:30:20;;;;;;;;;;;;;;;5.54;58.76;101456.03;1873801;75;20286;-79
2021/03/25 08:33:06;;;;;;;;;;;;;;;5.53;56.18;101455.62;1902513;75;20493;-80
2021/03/25 08:35:39;;;;;;;;;;;;;;;5.62;57.14;101456.61;1894626;75;20303;-79
2021/03/25 08:38:46;;;;;;;;;;;;;;;5.81;58.29;101455.10;1870725;76;21180;-76
2021/03/25 08:41:31;;;;;;;;;;;;;;;5.87;57.37;101457.53;1870754;76;20487;-77
2021/03/25 08:44:03;;;;;;;;;;;;;;;5.76;56.96;101453.14;1870660;76;20563;-79
2021/03/25 08:46:38;;;;;;;;;;;;;;;5.69;59.61;101444.78;1870532;76;20303;-80
2021/03/25 08:49:27;;;;;;;;;;;;;;;5.67;59.55;101460.73;1900109;75;20545;-79
2021/03/25 08:51:56;;;;;;;;;;;;;;;5.56;58.92;101458.95;1906547;75;21125;-75
2021/03/25 08:54:31;;;;;;;;;;;;;;;5.49;59.85;101452.78;1901931;75;20362;-83
2021/03/25 08:57:16;;;;;;;;;;;;;;;5.39;61.27;101454.81;1880910;75;20321;-83
2021/03/25 09:00:00;;;;;;;;;;;;;;;5.32;60.84;101464.45;1871877;75;20319;-80
2021/03/25 09:02:50;;;;;;;;;;;;;;;5.25;59.59;101464.24;1881465;75;20290;-78
2021/03/25 09:05:35;;;;;;;;;;;;;;;5.14;57.86;101457.28;1906487;75;21191;-81
2021/03/25 09:08:05;;;;;;;;;;;;;;;5.19;59.10;101462.30;1906414;75;20301;-78
2021/03/25 09:10:47;;;;;;;;;;;;;;;5.21;59.75;101465.22;1906403;75;20179;-78
2021/03/25 09:13:18;;;;;;;;;;;;;;;5.20;58.47;101466.57;1906250;75;20599;-82
2021/03/25 09:15:46;;;;;;;;;;;;;;;5.12;59.34;101464.22;1897277;75;20286;-82
2021/03/25 09:18:17;;;;;;;;;;;;;;;5.03;59.33;101460.66;1905915;75;22272;-82
2021/03/25 09:20:58;;;;;;;;;;;;;;;4.95;57.57;101464.32;1906136;75;20710;-75
2021/03/25 09:23:32;;;;;;;;;;;;;;;4.89;59.03;101460.65;1906466;74;20631;-81
2021/03/25 09:26:03;;;;;;;;;;;;;;;4.96;60.08;101460.43;1905617;75;20290;-81
2021/03/25 09:29:03;;;;;;;;;;;;;;;5.01;60.28;101471.41;1885186;75;20285;-77
2021/03/25 09:31:56;;;;;;;;;;;;;;;4.98;60.29;101471.50;1884235;75;21173;-79
2021/03/25 09:34:39;;;;;;;;;;;;;;;5.15;59.62;101467.14;1874153;75;20293;-80
2021/03/25 09:37:29;;;;;;;;;;;;;;;5.36;57.83;101463.07;1906688;75;20309;-79
2021/03/25 09:40:10;;;;;;;;;;;;;;;5.45;58.48;101458.91;1906652;75;20167;-84
2021/03/25 09:42:38;;;;;;;;;;;;;;;5.56;57.93;101463.25;1906204;75;20294;-82
2021/03/25 09:45:32;;;;;;;;;;;;;;;5.40;57.07;101459.05;1903664;75;21293;-80
2021/03/25 09:48:11;;;;;;;;;;;;;;;5.10;60.08;101469.88;1896867;73;20743;-79
2021/03/25 09:50:41;;;;;;;;;;;;;;;4.80;60.36;101466.91;1855903;77;20568;-83
2021/03/25 09:53:16;;;;;;;;;;;;;;;4.68;59.81;101473.27;1851580;77;22376;-78
2021/03/25 09:56:00;;;;;;;;;;;;;;;4.57;60.78;101473.16;1858911;76;20568;-79
2021/03/25 09:58:43;;;;;;;;;;;;;;;4.58;60.54;101458.98;1858164;76;20182;-82
2021/03/25 10:01:52;;;;;;;;;;;;;;;4.75;60.40;101458.04;1875930;76;20160;-83
2021/03/25 10:04:32;;;;;;;;;;;;;;;5.13;58.50;101450.92;1855951;76;20251;-81
2021/03/25 10:07:05;;;;;;;;;;;;;;;5.57;57.67;101449.50;1857576;76;21188;-77
2021/03/25 10:09:54;;;;;;;;;;;;;;;5.87;56.70;101444.66;1844158;77;20209;-81
2021/03/25 10:12:59;;;;;;;;;;;;;;;6.20;54.44;101449.91;1883110;76;20275;-82
2021/03/25 10:18:27;;;;;;;;;;;;;;;7.12;48.63;101438.28;1855865;77;20295;-83
2021/03/25 10:21:11;;;;;;;;;;;;;;;7.51;44.52;101439.72;1860526;74;21187;-77
2021/03/25 10:23:46;;;;;;;;;;;;;;;7.91;46.19;101428.94;1890956;76;20278;-77
2021/03/25 10:26:35;;;;;;;;;;;;;;;8.22;45.54;101425.04;1888209;76;20234;-78
2021/03/25 10:29:12;;;;;;;;;;;;;;;8.09;44.36;101435.08;1890777;76;20380;-83
2021/03/25 10:31:45;;;;;;;;;;;;;;;7.61;44.06;101435.41;1890800;75;20569;-77
2021/03/25 10:34:31;;;;;;;;;;;;;;;7.33;42.44;101443.45;1861986;76;22047;-80
2021/03/25 10:37:35;;;;;;;;;;;;;;;7.75;42.66;101425.36;1855863;76;20282;-81
2021/03/25 10:40:10;;;;;;;;;;;;;;;8.00;40.92;101438.06;1857612;76;20298;-82
2021/03/25 10:42:51;;;;;;;;;;;;;;;7.87;42.32;101429.16;1891125;74;20286;-80
2021/03/25 10:45:39;;;;;;;;;;;;;;;8.10;44.67;101419.97;1863406;76;20481;-77
2021/03/25 10:48:28;;;;;;;;;;;;;;;8.01;43.75;101426.80;1864686;75;21349;-78
2021/03/25 10:51:18;;;;;;;;;;;;;;;7.36;43.87;101436.03;1854185;76;20332;-79
2021/03/25 10:53:56;;;;;;;;;;;;;;;6.92;45.87;101426.99;1855385;77;20300;-77
2021/03/25 10:56:44;;;;;;;;;;;;;;;6.71;48.53;101429.55;1855921;76;20677;-81
2021/03/25 10:59:18;;;;;;;;;;;;;;;6.62;50.45;101433.33;1854658;77;20318;-80
2021/03/25 11:01:48;;;;;;;;;;;;;;;6.57;51.09;101430.09;1854455;77;20693;-83
2021/03/25 11:04:18;;;;;;;;;;;;;;;6.61;50.16;101436.80;1854946;76;20556;-81
2021/03/25 11:06:49;;;;;;;;;;;;;;;6.68;46.46;101430.52;1855821;76;20206;-80
2021/03/25 11:09:23;;;;;;;;;;;;;;;6.86;44.66;101423.84;1855923;77;20277;-80
2021/03/25 11:11:59;;;;;;;;;;;;;;;6.98;44.95;101426.37;1854953;77;20288;-78
2021/03/25 11:14:32;;;;;;;;;;;;;;;7.09;44.07;101422.47;1856095;77;22136;-79
2021/03/25 11:17:16;;;;;;;;;;;;;;;7.14;45.29;101445.09;1855725;77;20617;-79
2021/03/25 11:19:50;;;;;;;;;;;;;;;7.20;45.99;101443.55;1872728;76;20235;-82
2021/03/25 11:22:18;;;;;;;;;;;;;;;7.12;46.88;101446.86;1891925;74;20263;-79
2021/03/25 11:24:47;;;;;;;;;;;;;;;7.04;48.67;101451.50;1864661;74;20320;-80
2021/03/25 11:27:17;;;;;;;;;;;;;;;7.02;50.26;101458.92;1823428;77;21349;-78
2021/03/25 11:29:45;;;;;;;;;;;;;;;6.88;51.18;101469.31;1855429;76;20312;-80
2021/03/25 11:32:20;;;;;;;;;;;;;;;6.78;51.73;101465.39;1855226;77;20269;-78
2021/03/25 11:34:51;;;;;;;;;;;;;;;6.67;52.30;101462.83;1858101;76;20605;-82
2021/03/25 11:37:32;;;;;;;;;;;;;;;6.44;53.33;101467.98;1855285;76;20292;-75
2021/03/25 11:40:13;;;;;;;;;;;;;;;6.21;54.62;101466.22;1878365;76;20218;-80
2021/03/25 11:42:45;;;;;;;;;;;;;;;5.95;55.27;101472.27;1889743;75;20274;-79
2021/03/25 11:45:36;;;;;;;;;;;;;;;5.77;56.10;101468.56;1887441;76;20171;-78
2021/03/25 11:48:29;;;;;;;;;;;;;;;5.69;55.83;101470.53;1899931;75;20254;-82
2021/03/25 11:51:18;;;;;;;;;;;;;;;5.63;57.07;101472.02;1894992;73;20261;-83
2021/03/25 11:53:51;;;;;;;;;;;;;;;5.59;57.22;101476.87;1871128;76;22133;-79
2021/03/25 11:56:25;;;;;;;;;;;;;;;5.52;56.70;101476.66;1871532;76;20221;-77
2021/03/25 11:59:08;;;;;;;;;;;;;;;5.46;57.25;101470.87;1871328;76;20173;-83
2021/03/25 12:01:37;;;;;;;;;;;;;;;5.41;58.69;101464.59;1867314;76;20257;-78
2021/03/25 12:04:16;;;;;;;;;;;;;;;5.33;58.02;101478.98;1871140;76;20296;-82
2021/03/25 12:07:03;;;;;;;;;;;;;;;5.31;59.75;101473.50;1899818;75;21179;-79
2021/03/25 12:09:32;;;;;;;;;;;;;;;5.35;59.35;101475.09;1885086;74;20313;-80
2021/03/25 12:12:03;;;;;;;;;;;;;;;5.32;60.46;101475.19;1895523;75;20561;-83
2021/03/25 12:14:35;;;;;;;;;;;;;;;5.26;59.87;101472.34;1875569;75;20294;-78
2021/03/25 12:17:04;;;;;;;;;;;;;;;5.21;59.28;101475.95;1872985;75;20224;-80
2021/03/25 12:19:37;;;;;;;;;;;;;;;5.15;59.55;101471.00;1867344;76;21602;-83
2021/03/25 12:22:25;;;;;;;;;;;;;;;5.13;59.83;101464.63;1872518;75;20209;-78
2021/03/25 12:24:53;;;;;;;;;;;;;;;5.21;58.52;101466.95;1907248;75;20151;-80
2021/03/25 12:27:24;;;;;;;;;;;;;;;5.27;58.16;101471.90;1907921;75;20338;-79
2021/03/25 12:29:56;;;;;;;;;;;;;;;5.31;57.83;101467.91;1907394;75;20320;-82
2021/03/25 12:32:28;;;;;;;;;;;;;;;5.33;57.70;101465.27;1879113;75;21316;-81
2021/03/25 12:34:58;;;;;;;;;;;;;;;5.34;58.78;101465.23;1871099;76;20169;-80
2021/03/25 12:37:26;;;;;;;;;;;;;;;5.43;59.65;101462.80;1872279;76;20707;-82
2021/03/25 12:39:53;;;;;;;;;;;;;;;5.52;59.08;101452.20;1872272;76;20244;-77
2021/03/25 12:42:23;;;;;;;;;;;;;;;5.60;58.40;101446.82;1872186;75;20293;-81
2021/03/25 12:44:55;;;;;;;;;;;;;;;5.66;57.57;101446.17;1871716;75;21419;-76
2021/03/25 12:47:23;;;;;;;;;;;;;;;5.74;57.58;101446.74;1871726;76;20277;-80
2021/03/25 12:49:54;;;;;;;;;;;;;;;5.77;55.20;101440.23;1799430;79;20226;-81
2021/03/25 12:52:31;;;;;;;;;;;;;;;5.76;54.02;101437.25;1797540;78;20301;-83
2021/03/25 12:54:59;;;;;;;;;;;;;;;5.78;54.34;101444.91;1825376;78;20262;-82
2021/03/25 12:57:28;;;;;;;;;;;;;;;5.77;53.32;101442.81;1825898;78;21132;-78
2021/03/25 13:00:00;;;;;;;;;;;;;;;5.76;53.45;101443.69;1825109;78;20289;-83
2021/03/25 13:02:29;;;;;;;;;;;;;;;5.75;54.11;101445.86;1798697;78;20222;-80
2021/03/25 13:05:03;;;;;;;;;;;;;;;5.82;53.75;101445.20;1825439;78;20495;-86
2021/03/25 13:07:30;;;;;;;;;;;;;;;5.87;53.46;101448.96;1824963;78;20524;-81
2021/03/25 13:09:59;;;;;;;;;;;;;;;5.87;52.66;101449.80;1825179;78;21186;-81
2021/03/25 13:12:28;;;;;;;;;;;;;;;5.89;53.23;101448.01;1825352;78;20258;-84
2021/03/25 13:14:59;;;;;;;;;;;;;;;5.91;52.95;101448.78;1825553;78;20171;-84
2021/03/25 13:17:29;;;;;;;;;;;;;;;5.95;53.18;101452.10;1824914;78;20336;-83
2021/03/25 13:20:01;;;;;;;;;;;;;;;5.96;51.54;101454.64;1820221;78;20262;-82
2021/03/25 13:22:31;;;;;;;;;;;;;;;5.84;50.60;101460.16;1824367;78;20560;-80
2021/03/25 13:24:59;;;;;;;;;;;;;;;5.73;50.73;101464.39;1824741;78;20274;-81
2021/03/25 13:27:29;;;;;;;;;;;;;;;5.69;52.74;101469.24;1825447;78;20249;-80
2021/03/25 13:29:57;;;;;;;;;;;;;;;5.64;52.19;101459.55;1824641;78;20627;-80
2021/03/25 13:32:25;;;;;;;;;;;;;;;5.54;52.60;101480.05;1824366;78;20293;-81
2021/03/25 13:34:55;;;;;;;;;;;;;;;5.43;53.40;101476.11;1825067;77;21143;-81
2021/03/25 13:37:24;;;;;;;;;;;;;;;5.39;54.64;101483.56;1824869;78;20520;-85
2021/03/25 13:39:53;;;;;;;;;;;;;;;5.36;55.08;101481.90;1825439;78;20564;-83